Terminal Aerodrome Forecast
Issued by NWS

Home | Current Version | Previous Version | Text Only | Print | Product List | Glossary Off
Versions: 1 2 3 4 5 6 7 8 9 10 11 12 13 14 15 16 17 18 19 20 21 22 23

000
FTUS43 KMPX 012100 AAA
TAFRNH
TAF AMD
KRNH 012147Z 0122/0218 15004KT 5SM BR OVC006
     FM020300 00000KT 3SM BR OVC006
     FM020700 00000KT 1SM BR OVC003
     FM020900 00000KT 1/2SM FG VV002
     FM021500 33003KT 5SM BR BKN015=

USA.gov is the U.S. government's official web portal to all federal, state and local government web resources and services.